createdAt,value
2019-04-23T00:00:07.319Z,8.30
2019-04-23T00:02:40.755Z,8.20
2019-04-23T00:05:21.081Z,8.93
2019-04-23T00:07:56.114Z,8.45
2019-04-23T00:13:03.972Z,8.90
2019-04-23T00:15:35.839Z,9.03
2019-04-23T00:18:03.091Z,9.05
2019-04-23T00:20:37.445Z,8.80
2019-04-23T00:25:49.756Z,9.65
2019-04-23T00:30:50.236Z,9.48
2019-04-23T00:33:31.386Z,9.65
2019-04-23T00:36:02.654Z,9.60
2019-04-23T00:41:12.528Z,9.28
2019-04-23T00:43:43.185Z,9.48
2019-04-23T00:46:29.044Z,9.38
2019-04-23T00:51:20.293Z,9.38
2019-04-23T00:53:43.862Z,9.60
2019-04-23T00:58:54.940Z,9.68
2019-04-23T01:01:26.881Z,9.78
2019-04-23T01:04:02.791Z,9.60
2019-04-23T01:06:23.572Z,9.90
2019-04-23T01:09:03.722Z,10.10
2019-04-23T01:16:32.869Z,9.80
2019-04-23T01:19:07.241Z,9.98
2019-04-23T01:21:36.617Z,10.15
2019-04-23T01:24:19.303Z,9.95
2019-04-23T01:27:39.632Z,9.33
2019-04-23T01:30:04.980Z,9.88
2019-04-23T01:35:12.766Z,9.93
2019-04-23T01:37:43.335Z,10.25
2019-04-23T01:40:12.329Z,9.80
2019-04-23T01:45:22.778Z,10.18
2019-04-23T01:47:50.074Z,10.03
2019-04-23T01:50:25.083Z,10.00
2019-04-23T01:52:55.053Z,10.90
2019-04-23T01:58:05.836Z,10.48
2019-04-23T02:00:29.004Z,9.90
2019-04-23T02:03:01.155Z,10.13
2019-04-23T02:05:34.996Z,10.08
2019-04-23T02:08:11.064Z,10.25
2019-04-23T02:10:45.775Z,10.82
2019-04-23T02:13:16.863Z,10.43
2019-04-23T02:15:49.087Z,10.40
2019-04-23T02:18:17.951Z,10.95
2019-04-23T02:20:56.479Z,10.48
2019-04-23T02:23:57.294Z,10.82
2019-04-23T02:26:26.365Z,10.08
2019-04-23T02:29:14.678Z,10.53
2019-04-23T02:31:52.786Z,10.48
2019-04-23T02:34:29.227Z,10.10
2019-04-23T02:39:57.543Z,10.43
2019-04-23T02:42:40.803Z,11.20
2019-04-23T02:44:56.409Z,10.65
2019-04-23T02:50:11.600Z,11.48
2019-04-23T02:52:30.527Z,11.30
2019-04-23T02:55:09.083Z,10.35
2019-04-23T02:57:38.889Z,11.57
2019-04-23T03:00:19.265Z,11.30
2019-04-23T03:02:58.694Z,11.38
2019-04-23T03:05:11.640Z,11.35
2019-04-23T03:07:45.496Z,11.48
2019-04-23T03:12:59.292Z,11.35
2019-04-23T03:15:44.686Z,11.53
2019-04-23T03:21:11.763Z,11.12
2019-04-23T03:23:49.623Z,10.78
2019-04-23T03:26:25.795Z,10.75
2019-04-23T03:28:59.853Z,12.05
2019-04-23T03:38:54.355Z,11.28
2019-04-23T03:43:51.514Z,11.12
2019-04-23T03:49:21.340Z,11.20
2019-04-23T03:52:01.249Z,11.08
2019-04-23T04:02:19.695Z,11.12
2019-04-23T04:04:32.936Z,11.65
2019-04-23T04:19:47.629Z,11.10
2019-04-23T04:22:29.318Z,10.48
2019-04-23T04:24:49.129Z,11.22
2019-04-23T04:30:00.925Z,10.45
2019-04-23T04:45:22.771Z,11.05
2019-04-23T04:50:18.026Z,9.63
2019-04-23T04:55:26.572Z,9.05
2019-04-23T04:57:52.136Z,9.25
2019-04-23T05:05:51.584Z,9.23
2019-04-23T05:10:43.227Z,9.08
2019-04-23T05:13:28.263Z,9.48
2019-04-23T05:18:28.947Z,9.10
2019-04-23T05:21:10.375Z,9.10
2019-04-23T05:23:42.985Z,8.60
2019-04-23T05:26:20.925Z,9.30
2019-04-23T05:31:23.126Z,7.87
2019-04-23T05:33:58.124Z,9.58
2019-04-23T05:36:41.547Z,8.70
2019-04-23T05:39:07.648Z,8.73
2019-04-23T05:41:30.425Z,8.73
2019-04-23T05:44:05.203Z,8.58
2019-04-23T05:46:45.832Z,8.75
2019-04-23T05:49:07.305Z,9.28
2019-04-23T05:51:44.584Z,8.23
2019-04-23T05:54:12.769Z,8.75
2019-04-23T05:56:38.219Z,9.70
2019-04-23T06:01:53.983Z,8.18
2019-04-23T06:09:25.245Z,8.28
2019-04-23T06:12:00.143Z,8.63
2019-04-23T06:14:37.230Z,8.30
2019-04-23T06:17:09.232Z,7.97
2019-04-23T06:19:28.825Z,7.83
2019-04-23T06:24:48.785Z,7.80
2019-04-23T06:27:13.307Z,7.28
2019-04-23T06:29:41.565Z,7.95
2019-04-23T06:32:14.366Z,7.42
2019-04-23T06:34:47.174Z,6.85
2019-04-23T06:37:18.411Z,7.17
2019-04-23T06:39:53.912Z,7.33
2019-04-23T06:42:20.702Z,6.92
2019-04-23T06:44:58.221Z,7.08
2019-04-23T06:47:27.750Z,6.92
2019-04-23T06:52:43.780Z,6.53
2019-04-23T06:57:41.227Z,6.12
2019-04-23T07:00:08.390Z,6.42
2019-04-23T07:02:39.080Z,6.00
2019-04-23T07:10:19.813Z,6.22
2019-04-23T07:17:58.780Z,6.40
2019-04-23T07:20:33.561Z,6.53
2019-04-23T07:23:04.977Z,6.33
2019-04-23T07:25:38.540Z,6.12
2019-04-23T07:28:13.480Z,5.97
2019-04-23T07:30:38.462Z,6.05
2019-04-23T07:33:23.640Z,6.30
2019-04-23T07:35:45.420Z,5.97
2019-04-23T07:38:36.405Z,6.53
2019-04-23T07:41:12.028Z,5.33
2019-04-23T07:43:30.786Z,6.05
2019-04-23T07:46:16.829Z,6.08
2019-04-23T07:48:40.353Z,5.90
2019-04-23T07:51:16.228Z,6.12
2019-04-23T07:53:53.231Z,5.40
2019-04-23T07:56:33.741Z,5.40
2019-04-23T07:59:04.193Z,5.50
2019-04-23T08:01:26.836Z,4.67
2019-04-23T08:04:08.980Z,5.67
2019-04-23T08:06:46.339Z,5.15
2019-04-23T08:09:24.292Z,5.22
2019-04-23T08:12:02.645Z,5.22
2019-04-23T08:14:30.157Z,5.08
2019-04-23T08:16:58.407Z,5.65
2019-04-23T08:19:33.084Z,4.37
2019-04-23T08:22:12.749Z,5.10
2019-04-23T08:24:48.623Z,5.22
2019-04-23T08:27:10.709Z,5.22
2019-04-23T08:29:43.915Z,5.42
2019-04-23T08:32:27.863Z,4.70
2019-04-23T08:35:01.216Z,5.30
2019-04-23T08:37:54.162Z,5.08
2019-04-23T08:39:52.165Z,4.60
2019-04-23T08:48:01.279Z,4.53
2019-04-23T08:50:34.045Z,4.30
2019-04-23T08:53:17.678Z,4.47
2019-04-23T08:55:38.809Z,4.80
2019-04-23T08:58:06.280Z,4.40
2019-04-23T09:03:28.481Z,3.75
2019-04-23T09:05:56.003Z,4.25
2019-04-23T09:08:27.355Z,4.05
2019-04-23T09:21:21.044Z,3.98
2019-04-23T09:23:59.065Z,3.95
2019-04-23T09:26:33.178Z,4.15
2019-04-23T09:29:09.583Z,4.35
2019-04-23T09:32:00.675Z,4.12
2019-04-23T09:34:26.564Z,4.10
2019-04-23T09:37:11.829Z,3.92
2019-04-23T09:40:06.295Z,3.72
2019-04-23T09:42:54.502Z,4.17
2019-04-23T09:45:35.884Z,4.10
2019-04-23T09:48:03.570Z,3.95
2019-04-23T09:50:41.469Z,4.47
2019-04-23T09:53:26.915Z,3.85
2019-04-23T09:56:01.011Z,4.10
2019-04-23T10:00:52.173Z,4.12
2019-04-23T10:03:16.653Z,4.10
2019-04-23T10:05:45.100Z,4.05
2019-04-23T10:08:18.558Z,4.50
2019-04-23T10:10:38.701Z,4.60
2019-04-23T10:13:09.087Z,4.40
2019-04-23T10:16:00.118Z,4.03
2019-04-23T10:18:31.000Z,4.50
2019-04-23T10:21:03.311Z,4.12
2019-04-23T10:23:33.991Z,4.42
2019-04-23T10:26:08.081Z,3.90
2019-04-23T10:28:44.257Z,4.60
2019-04-23T10:31:16.616Z,4.62
2019-04-23T10:33:48.198Z,4.33
2019-04-23T10:36:21.926Z,4.55
2019-04-23T10:38:59.988Z,4.45
2019-04-23T10:41:25.435Z,4.45
2019-04-23T10:44:00.739Z,4.35
2019-04-23T10:47:03.045Z,4.40
2019-04-23T10:49:53.179Z,4.47
2019-04-23T10:52:20.515Z,4.90
2019-04-23T10:54:45.654Z,4.50
2019-04-23T10:57:16.702Z,4.35
2019-04-23T10:59:47.457Z,4.72
2019-04-23T11:07:47.059Z,5.15
2019-04-23T11:12:52.280Z,4.80
2019-04-23T11:15:47.323Z,5.03
2019-04-23T11:17:52.016Z,5.97
2019-04-23T11:20:54.500Z,5.67
2019-04-23T11:23:13.526Z,4.72
2019-04-23T11:25:48.967Z,4.78
2019-04-23T11:28:27.473Z,5.05
2019-04-23T11:30:55.778Z,4.80
2019-04-23T11:33:40.186Z,5.00
2019-04-23T11:36:37.260Z,5.15
2019-04-23T11:41:22.585Z,4.70
2019-04-23T11:43:37.736Z,4.75
2019-04-23T11:46:34.021Z,4.70
2019-04-23T11:48:59.775Z,5.03
2019-04-23T11:53:56.139Z,4.60
2019-04-23T11:58:52.904Z,5.60
2019-04-23T12:01:42.790Z,4.70
2019-04-23T12:04:13.539Z,5.00
2019-04-23T12:06:51.001Z,4.58
2019-04-23T12:09:34.744Z,4.65
2019-04-23T12:17:13.333Z,4.78
2019-04-23T12:27:25.970Z,4.97
2019-04-23T12:29:46.290Z,5.60
2019-04-23T12:32:43.100Z,4.83
2019-04-23T12:35:04.381Z,5.05
2019-04-23T12:37:36.489Z,6.33
2019-04-23T12:40:12.911Z,5.05
2019-04-23T12:45:18.560Z,5.12
2019-04-23T12:47:50.486Z,5.87
2019-04-23T12:50:38.326Z,5.80
2019-04-23T12:52:47.645Z,5.45
2019-04-23T12:58:03.512Z,5.05
2019-04-23T13:02:48.520Z,5.87
2019-04-23T13:05:28.948Z,6.00
2019-04-23T13:10:33.761Z,5.12
2019-04-23T13:13:11.369Z,6.35
2019-04-23T13:15:34.646Z,6.25
2019-04-23T13:18:11.315Z,6.03
2019-04-23T13:20:36.850Z,6.33
2019-04-23T13:23:16.422Z,6.83
2019-04-23T13:28:21.686Z,6.03
2019-04-23T13:30:59.338Z,6.80
2019-04-23T13:36:29.099Z,6.97
2019-04-23T13:48:58.863Z,7.03
2019-04-23T13:51:25.595Z,6.22
2019-04-23T13:53:58.808Z,7.30
2019-04-23T14:04:33.293Z,6.65
2019-04-23T14:07:01.454Z,8.03
2019-04-23T14:12:12.704Z,7.00
2019-04-23T14:17:28.563Z,7.30
2019-04-23T14:19:53.198Z,7.45
2019-04-23T14:22:45.065Z,7.15
2019-04-23T14:25:05.015Z,7.72
2019-04-23T14:27:26.444Z,6.80
2019-04-23T14:30:13.238Z,7.25
2019-04-23T14:32:35.300Z,6.90
2019-04-23T14:35:18.275Z,7.12
2019-04-23T14:37:54.896Z,8.88
2019-04-23T14:40:21.682Z,7.55
2019-04-23T14:42:58.343Z,7.87
2019-04-23T14:48:04.535Z,7.42
2019-04-23T14:53:13.283Z,7.25
2019-04-23T14:55:49.065Z,9.03
2019-04-23T14:58:20.729Z,7.65
2019-04-23T15:00:53.114Z,7.72
2019-04-23T15:06:12.092Z,8.10
2019-04-23T15:08:24.906Z,7.33
2019-04-23T15:11:06.601Z,7.80
2019-04-23T15:13:28.260Z,7.47
2019-04-23T15:16:07.983Z,7.90
2019-04-23T15:18:58.441Z,7.83
2019-04-23T15:28:37.431Z,8.48
2019-04-23T15:31:34.827Z,8.60
2019-04-23T15:34:07.554Z,8.48
2019-04-23T15:39:16.779Z,8.18
2019-04-23T15:41:38.226Z,8.53
2019-04-23T15:49:21.340Z,8.18
2019-04-23T15:51:54.606Z,8.33
2019-04-23T15:54:25.238Z,8.43
2019-04-23T15:56:54.752Z,8.13
2019-04-23T15:59:36.811Z,8.65
2019-04-23T16:01:41.385Z,8.35
2019-04-23T16:04:01.403Z,8.65
2019-04-23T16:06:34.515Z,8.95
2019-04-23T16:09:21.585Z,9.48
2019-04-23T16:11:59.594Z,8.60
2019-04-23T16:14:52.974Z,8.75
2019-04-23T16:17:13.845Z,8.55
2019-04-23T16:27:37.994Z,8.58
2019-04-23T16:30:17.385Z,8.10
2019-04-23T16:32:57.886Z,8.48
2019-04-23T16:38:10.348Z,9.30
2019-04-23T16:40:33.195Z,9.10
2019-04-23T16:43:05.480Z,9.58
2019-04-23T16:45:31.859Z,9.43
2019-04-23T16:48:14.095Z,9.30
2019-04-23T16:50:56.572Z,9.00
2019-04-23T16:53:16.393Z,9.20
2019-04-23T16:58:21.481Z,9.73
2019-04-23T17:03:31.279Z,10.05
2019-04-23T17:05:57.123Z,10.08
2019-04-23T17:08:42.564Z,10.45
2019-04-23T17:13:30.068Z,10.20
2019-04-23T17:16:06.570Z,10.30
2019-04-23T17:18:31.385Z,10.30
2019-04-23T17:21:04.758Z,10.48
2019-04-23T17:23:45.924Z,10.38
2019-04-23T17:26:13.480Z,10.38
2019-04-23T17:28:35.851Z,10.40
2019-04-23T17:31:40.304Z,10.35
2019-04-23T17:36:32.068Z,11.22
2019-04-23T17:39:12.011Z,11.10
2019-04-23T17:42:10.202Z,11.63
2019-04-23T17:47:06.488Z,11.45
2019-04-23T17:49:48.231Z,10.85
2019-04-23T17:52:13.082Z,11.43
2019-04-23T17:54:41.166Z,11.05
2019-04-23T17:57:15.648Z,11.15
2019-04-23T18:00:04.857Z,11.83
2019-04-23T18:07:37.752Z,11.63
2019-04-23T18:10:13.133Z,11.05
2019-04-23T18:12:39.007Z,11.75
2019-04-23T18:15:14.860Z,12.00
2019-04-23T18:17:35.448Z,12.03
2019-04-23T18:20:16.285Z,11.95
2019-04-23T18:22:58.595Z,11.25
2019-04-23T18:25:25.248Z,11.80
2019-04-23T18:27:54.237Z,11.12
2019-04-23T18:30:32.072Z,11.88
2019-04-23T18:33:43.727Z,12.30
2019-04-23T18:41:01.303Z,11.60
2019-04-23T18:43:29.740Z,11.97
2019-04-23T18:45:55.655Z,12.07
2019-04-23T18:53:43.662Z,11.78
2019-04-23T19:04:07.183Z,11.85
2019-04-23T19:19:42.506Z,11.00
2019-04-23T19:24:37.801Z,8.65
2019-04-23T19:27:26.194Z,8.85
2019-04-23T19:29:59.852Z,8.63
2019-04-23T19:32:14.372Z,6.25
2019-04-23T19:34:52.933Z,6.53
2019-04-23T19:37:34.869Z,6.12
2019-04-23T19:39:55.025Z,6.40
2019-04-23T19:42:42.515Z,6.28
2019-04-23T19:45:12.701Z,7.10
2019-04-23T19:47:52.849Z,6.28
2019-04-23T19:50:15.278Z,6.83
2019-04-23T19:52:57.642Z,6.12
2019-04-23T19:55:19.289Z,6.72
2019-04-23T19:57:49.259Z,6.37
2019-04-23T20:00:19.474Z,7.22
2019-04-23T20:03:18.470Z,6.65
2019-04-23T20:05:23.457Z,7.90
2019-04-23T20:08:02.324Z,7.30
2019-04-23T20:10:28.547Z,6.67
2019-04-23T20:13:02.093Z,6.45
2019-04-23T20:15:50.861Z,7.05
2019-04-23T20:18:05.203Z,7.60
2019-04-23T20:23:28.366Z,7.47
2019-04-23T20:36:48.110Z,6.15
2019-04-23T20:39:17.243Z,6.00
2019-04-23T20:44:43.370Z,6.37
2019-04-23T20:52:36.068Z,5.80
2019-04-23T20:55:01.226Z,5.12
2019-04-23T21:00:08.947Z,5.92
2019-04-23T21:05:21.571Z,5.47
2019-04-23T21:10:51.128Z,5.42
2019-04-23T21:15:28.334Z,5.00
2019-04-23T21:25:41.012Z,5.60
2019-04-23T21:28:18.027Z,5.22
2019-04-23T21:33:38.794Z,5.62
2019-04-23T21:39:03.284Z,4.90
2019-04-23T21:41:45.259Z,5.30
2019-04-23T21:49:16.256Z,4.62
2019-04-23T21:54:05.583Z,4.65
2019-04-23T22:06:52.920Z,4.28
2019-04-23T22:09:35.086Z,3.77
2019-04-23T22:14:44.048Z,3.42
2019-04-23T22:19:38.337Z,3.90
2019-04-23T22:22:10.836Z,3.72
2019-04-23T22:27:16.215Z,3.83
2019-04-23T22:29:44.639Z,3.83
2019-04-23T22:32:25.511Z,4.40
2019-04-23T22:34:55.700Z,4.40
2019-04-23T22:37:24.039Z,4.10
2019-04-23T22:42:54.945Z,4.17
2019-04-23T22:45:10.496Z,3.62
2019-04-23T22:47:33.565Z,3.67
2019-04-23T22:50:14.320Z,4.62
2019-04-23T22:52:40.829Z,3.95
2019-04-23T23:08:01.430Z,4.53
2019-04-23T23:10:28.127Z,4.20
2019-04-23T23:13:04.072Z,4.00
2019-04-23T23:15:43.831Z,3.70
2019-04-23T23:18:17.049Z,4.42
2019-04-23T23:20:48.902Z,4.60
2019-04-23T23:25:52.029Z,4.83
2019-04-23T23:28:21.497Z,5.15
2019-04-23T23:33:24.772Z,5.30
2019-04-23T23:35:58.901Z,4.80
2019-04-23T23:38:33.497Z,5.17
2019-04-23T23:46:17.304Z,5.33
2019-04-23T23:48:35.969Z,6.08
2019-04-23T23:51:19.065Z,5.42
2019-04-23T23:53:55.150Z,5.03
2019-04-23T23:56:20.776Z,6.10
2019-04-23T23:58:55.278Z,5.25
